Danville Regional Airport
KDAN : rendu visible

Aérodrome :











RETROUVEZ-NOUS SUR...

 
LOGIN :

S'inscrire | Disclaimer

   EN    FR    IT 

 









Légende :    VFR   VFR Marginal   IFR   IFR Intensif   IFR Très Intensif
Visi : 
Plafond : 
>= 8 km
>= 3000ft
5 à 8 km
1000 à 3000 ft
1500m à 5 km
500 à 1000 ft
800 à 1500m
200 à 500 ft
< 800m
< 200 ft
Symboles :   Orages  Brouillard  Fortes neiges  Fortes précipitations  Vent > 20 kt






- Altitude de l'aérodrome : 571 ft
- Code IATA : DAN


KDAN - Danville Regional

DERNIER METAR :
  • 222253Z AUTO 23004KT 10SM CLR 12/08 A2998 RMK AO2 SLP145 T01170078

METARs EXPIRÉS :
  • 222153Z AUTO 24004KT 10SM FEW048 BKN080 13/08 A2997 RMK AO2 SLP143 T01330078
  • 222053Z AUTO 27006KT 10SM OVC044 15/08 A2995 RMK AO2 SLP137 60000 T01500078 53002

TAF KDAN
Valide du 22 à 18h jusqu'au 23 à 18h UTC


221744Z 2218/2318 24007KT P6SM VCSH OVC080
FM222000 26006KT P6SM OVC080
FM230100 VRB03KT P6SM SCT150
FM231300 VRB03KT P6SM BKN050
FM231500 10004KT P6SM -RA OVC025



MET'MAP, la Météo Aéronautique d'un coup d'oeil ! - Copyright ORBIFLY Décembre 2007 - Disclaimer

ORBIFLY MET'MAP TEAM :

Programmation & Développement : Alexandra Zaïnal
Conception & Développement : Baudouin d'Aumeries
Co-Programmation & Développement : Marc-Olivier Méhu
Soutien technique & logistique : Manuel Goepfert

Contact : metmap@orbifly.com




SOURCES & CREDITS :

   NOAA       Earth
Advisory